createdAt,value
2024-01-05T00:03:20.647Z,6.20
2024-01-05T00:08:22.549Z,6.20
2024-01-05T00:13:24.264Z,6.30
2024-01-05T00:18:26.074Z,6.00
2024-01-05T00:23:27.833Z,5.90
2024-01-05T00:28:29.532Z,6.10
2024-01-05T00:33:31.467Z,6.00
2024-01-05T00:38:34.157Z,6.10
2024-01-05T00:43:35.916Z,6.10
2024-01-05T00:48:37.962Z,6.10
2024-01-05T00:53:40.208Z,6.10
2024-01-05T00:58:42.005Z,5.90
2024-01-05T01:03:43.801Z,5.50
2024-01-05T01:08:45.633Z,6.00
2024-01-05T01:13:47.434Z,6.10
2024-01-05T01:18:49.239Z,6.00
2024-01-05T01:23:52.514Z,6.00
2024-01-05T01:28:54.320Z,7.00
2024-01-05T01:33:56.112Z,6.00
2024-01-05T01:38:58.136Z,6.10
2024-01-05T01:44:00.181Z,6.10
2024-01-05T01:49:02.323Z,6.10
2024-01-05T01:54:06.814Z,6.10
2024-01-05T01:59:08.775Z,5.90
2024-01-05T02:04:16.956Z,6.00
2024-01-05T02:09:19.801Z,6.00
2024-01-05T02:14:21.685Z,6.00
2024-01-05T02:19:23.550Z,6.00
2024-01-05T02:24:25.434Z,6.00
2024-01-05T02:29:27.134Z,6.00
2024-01-05T02:34:28.961Z,6.00
2024-01-05T02:39:30.812Z,6.00
2024-01-05T02:44:32.578Z,6.00
2024-01-05T02:49:34.410Z,6.20
2024-01-05T02:54:36.308Z,6.10
2024-01-05T02:59:38.018Z,6.50
2024-01-05T03:04:44.382Z,6.80
2024-01-05T03:09:46.187Z,6.90
2024-01-05T03:14:47.912Z,6.30
2024-01-05T03:19:49.762Z,6.30
2024-01-05T03:24:51.610Z,6.20
2024-01-05T03:29:53.562Z,6.30
2024-01-05T03:34:55.452Z,6.10
2024-01-05T03:39:57.233Z,7.00
2024-01-05T03:44:59.113Z,6.30
2024-01-05T03:50:01.013Z,6.00
2024-01-05T03:55:03.186Z,5.80
2024-01-05T04:00:06.046Z,5.70
2024-01-05T04:05:08.918Z,5.80
2024-01-05T04:10:10.929Z,5.80
2024-01-05T04:15:13.172Z,5.80
2024-01-05T04:20:15.061Z,5.90
2024-01-05T04:25:16.835Z,5.90
2024-01-05T04:30:18.681Z,5.80
2024-01-05T04:35:20.590Z,5.90
2024-01-05T04:40:23.116Z,5.60
2024-01-05T04:45:25.679Z,5.40
2024-01-05T04:50:27.535Z,5.60
2024-01-05T04:55:29.275Z,5.70
2024-01-05T05:00:31.081Z,5.60
2024-01-05T05:05:32.843Z,5.80
2024-01-05T05:10:34.608Z,5.80
2024-01-05T05:15:38.157Z,5.70
2024-01-05T05:20:39.935Z,5.70
2024-01-05T05:25:41.682Z,5.80
2024-01-05T05:30:44.430Z,5.70
2024-01-05T05:35:46.362Z,5.70
2024-01-05T05:40:48.119Z,5.40
2024-01-05T05:45:50.643Z,5.40
2024-01-05T05:50:52.443Z,5.30
2024-01-05T05:55:54.225Z,6.20
2024-01-05T06:00:56.143Z,5.30
2024-01-05T06:05:58.687Z,5.30
2024-01-05T06:11:00.449Z,5.30
2024-01-05T06:16:02.230Z,5.20
2024-01-05T06:21:04.372Z,5.30
2024-01-05T06:26:06.068Z,5.30
2024-01-05T06:31:07.994Z,5.30
2024-01-05T06:36:10.014Z,5.30
2024-01-05T06:41:11.947Z,5.50
2024-01-05T06:46:13.720Z,3.70
2024-01-05T06:51:15.437Z,5.30
2024-01-05T06:56:19.801Z,5.30
2024-01-05T07:01:21.547Z,5.40
2024-01-05T07:06:23.625Z,5.10
2024-01-05T07:11:25.861Z,5.10
2024-01-05T07:16:27.712Z,5.30
2024-01-05T07:21:29.604Z,5.20
2024-01-05T07:26:31.344Z,5.30
2024-01-05T07:31:33.058Z,5.20
2024-01-05T07:36:34.835Z,5.10
2024-01-05T07:41:36.552Z,4.90
2024-01-05T07:46:42.966Z,5.20
2024-01-05T07:51:45.053Z,5.20
2024-01-05T07:56:46.951Z,5.40
2024-01-05T08:01:52.994Z,4.90
2024-01-05T08:06:54.717Z,4.80
2024-01-05T08:11:56.573Z,4.80
2024-01-05T08:16:58.318Z,5.20
2024-01-05T08:22:00.016Z,5.30
2024-01-05T08:27:01.851Z,5.50
2024-01-05T08:32:04.236Z,5.50
2024-01-05T08:37:06.000Z,5.50
2024-01-05T08:42:08.328Z,5.50
2024-01-05T08:47:10.432Z,5.40
2024-01-05T08:57:15.300Z,5.90
2024-01-05T09:02:17.082Z,6.20
2024-01-05T09:07:18.874Z,6.00
2024-01-05T09:12:20.736Z,6.30
2024-01-05T09:17:22.566Z,6.70
2024-01-05T09:22:24.615Z,6.90
2024-01-05T09:27:26.770Z,7.20
2024-01-05T09:32:28.513Z,6.30
2024-01-05T09:37:30.247Z,6.90
2024-01-05T09:42:32.022Z,6.60
2024-01-05T09:47:36.066Z,6.70
2024-01-05T09:52:40.219Z,6.70
2024-01-05T09:57:45.314Z,6.70
2024-01-05T10:03:00.151Z,6.90
2024-01-05T10:08:02.462Z,7.10
2024-01-05T10:13:06.752Z,7.30
2024-01-05T10:18:19.926Z,7.40
2024-01-05T10:23:24.545Z,7.90
2024-01-05T10:28:33.371Z,7.90
2024-01-05T10:33:35.259Z,7.90
2024-01-05T10:38:37.109Z,7.90
2024-01-05T10:43:42.752Z,8.10
2024-01-05T10:48:45.064Z,8.00
2024-01-05T10:53:48.368Z,8.00
2024-01-05T10:58:50.848Z,7.70
2024-01-05T11:03:54.735Z,7.90
2024-01-05T11:09:18.226Z,7.80
2024-01-05T11:14:35.912Z,8.20
2024-01-05T11:19:52.022Z,8.30
2024-01-05T11:24:56.470Z,8.40
2024-01-05T11:29:59.649Z,8.60
2024-01-05T11:35:02.453Z,8.60
2024-01-05T11:40:04.737Z,8.70
2024-01-05T11:45:12.516Z,8.90
2024-01-05T11:50:34.632Z,8.80
2024-01-05T11:55:41.267Z,8.90
2024-01-05T12:00:46.031Z,9.10
2024-01-05T12:05:51.221Z,9.40
2024-01-05T12:10:57.687Z,9.40
2024-01-05T12:16:02.484Z,9.50
2024-01-05T12:21:05.098Z,10.60
2024-01-05T12:26:08.755Z,9.50
2024-01-05T12:36:28.874Z,9.60
2024-01-05T12:41:31.211Z,9.60
2024-01-05T12:46:41.523Z,9.60
2024-01-05T12:51:48.639Z,9.80
2024-01-05T12:56:52.220Z,9.80
2024-01-05T13:02:07.134Z,9.90
2024-01-05T13:07:14.335Z,10.00
2024-01-05T13:12:16.320Z,10.20
2024-01-05T13:17:18.037Z,11.10
2024-01-05T13:32:24.200Z,10.30
2024-01-05T13:37:27.032Z,10.30
2024-01-05T13:42:30.045Z,10.30
2024-01-05T13:47:38.098Z,10.30
2024-01-05T13:52:39.961Z,10.30
2024-01-05T13:57:41.894Z,12.60
2024-01-05T14:02:44.208Z,10.30
2024-01-05T14:07:46.025Z,10.20
2024-01-05T14:22:52.592Z,10.00
2024-01-05T14:27:54.379Z,10.00
2024-01-05T14:37:58.364Z,10.00
2024-01-05T14:43:00.164Z,9.90
2024-01-05T14:48:02.114Z,9.90
2024-01-05T14:53:10.752Z,12.00
2024-01-05T14:58:13.805Z,9.90
2024-01-05T15:03:15.655Z,9.80
2024-01-05T15:08:17.952Z,9.70
2024-01-05T15:13:19.746Z,11.40
2024-01-05T15:18:21.933Z,9.70
2024-01-05T15:28:25.960Z,9.30
2024-01-05T15:33:27.808Z,9.20
2024-01-05T15:38:29.584Z,9.20
2024-01-05T15:48:33.908Z,9.20
2024-01-05T15:58:39.440Z,9.10
2024-01-05T16:23:10.956Z,8.70
2024-01-05T16:28:12.886Z,8.70
2024-01-05T16:33:15.057Z,8.70
2024-01-05T16:38:16.959Z,8.60
2024-01-05T16:43:18.742Z,8.50
2024-01-05T16:48:20.899Z,8.60
2024-01-05T16:53:24.430Z,8.50
2024-01-05T16:58:26.268Z,9.90
2024-01-05T17:03:28.407Z,8.30
2024-01-05T17:08:30.357Z,8.20
2024-01-05T17:13:35.159Z,8.20
2024-01-05T17:18:38.889Z,8.00
2024-01-05T17:23:42.428Z,8.00
2024-01-05T17:28:44.751Z,7.90
2024-01-05T17:33:46.994Z,7.70
2024-01-05T17:38:50.821Z,7.70
2024-01-05T17:43:52.946Z,7.50
2024-01-05T17:48:55.235Z,7.40
2024-01-05T17:54:01.238Z,7.40
2024-01-05T17:59:04.885Z,7.40
2024-01-05T18:04:07.065Z,7.40
2024-01-05T18:09:09.310Z,7.30
2024-01-05T18:14:14.465Z,7.30
2024-01-05T18:19:16.727Z,7.30
2024-01-05T18:24:18.740Z,7.20
2024-01-05T18:29:25.566Z,7.20
2024-01-05T18:34:32.004Z,7.20
2024-01-05T18:39:37.168Z,7.20
2024-01-05T18:44:41.072Z,7.10
2024-01-05T18:49:43.101Z,7.10
2024-01-05T18:54:44.899Z,7.10
2024-01-05T18:59:46.816Z,7.10
2024-01-05T19:04:49.154Z,7.00
2024-01-05T19:09:51.669Z,7.00
2024-01-05T19:14:53.993Z,6.90
2024-01-05T19:19:55.878Z,7.00
2024-01-05T19:24:58.129Z,6.90
2024-01-05T19:30:00.941Z,6.90
2024-01-05T19:35:04.894Z,6.80
2024-01-05T19:40:08.258Z,6.90
2024-01-05T19:45:12.980Z,6.80
2024-01-05T19:50:15.269Z,7.50
2024-01-05T19:55:17.479Z,6.70
2024-01-05T20:00:19.834Z,6.80
2024-01-05T20:05:25.036Z,6.90
2024-01-05T20:10:28.665Z,6.80
2024-01-05T20:15:31.864Z,6.80
2024-01-05T20:20:34.091Z,6.70
2024-01-05T20:25:37.284Z,7.00
2024-01-05T20:30:39.219Z,6.70
2024-01-05T20:35:41.219Z,6.80
2024-01-05T20:40:43.300Z,6.80
2024-01-05T20:45:45.414Z,6.70
2024-01-05T20:50:47.425Z,6.60
2024-01-05T21:00:59.137Z,6.80
2024-01-05T21:06:02.943Z,9.00
2024-01-05T21:11:05.190Z,6.80
2024-01-05T21:16:07.709Z,6.80
2024-01-05T21:21:10.729Z,6.80
2024-01-05T21:26:14.269Z,6.90
2024-01-05T21:36:19.594Z,6.90
2024-01-05T21:41:23.846Z,6.90
2024-01-05T21:46:26.086Z,6.90
2024-01-05T21:51:28.268Z,7.00
2024-01-05T21:56:30.217Z,7.00
2024-01-05T22:01:32.371Z,7.10
2024-01-05T22:06:34.933Z,8.10
2024-01-05T22:11:43.950Z,6.80
2024-01-05T22:16:46.079Z,6.90
2024-01-05T22:21:48.104Z,6.90
2024-01-05T22:26:50.040Z,6.90
2024-01-05T22:31:52.964Z,6.90
2024-01-05T22:36:55.638Z,6.60
2024-01-05T22:41:57.752Z,6.80
2024-01-05T22:47:05.832Z,6.70
2024-01-05T22:52:09.252Z,6.70
2024-01-05T22:57:11.966Z,6.70
2024-01-05T23:02:14.304Z,8.30
2024-01-05T23:07:16.542Z,6.70
2024-01-05T23:12:18.459Z,6.70
2024-01-05T23:17:20.216Z,6.60
2024-01-05T23:22:22.648Z,6.50
2024-01-05T23:27:26.338Z,6.50
2024-01-05T23:32:28.629Z,6.50
2024-01-05T23:37:33.111Z,6.50
2024-01-05T23:42:35.016Z,6.50
2024-01-05T23:47:36.761Z,6.40
2024-01-05T23:52:39.079Z,6.20
2024-01-05T23:57:41.698Z,6.30
